sensor_id;sensor_type;location;lat;lon;timestamp;temperature;humidity
52919;DHT22;38793;52.690;6.812;2023-02-19T00:01:20;9.60;99.90
52919;DHT22;38793;52.690;6.812;2023-02-19T00:03:52;9.60;99.90
52919;DHT22;38793;52.690;6.812;2023-02-19T00:06:19;9.50;99.90
52919;DHT22;38793;52.690;6.812;2023-02-19T00:08:45;9.50;99.90
52919;DHT22;38793;52.690;6.812;2023-02-19T00:11:16;9.50;99.90
52919;DHT22;38793;52.690;6.812;2023-02-19T00:13:44;9.50;99.90
52919;DHT22;38793;52.690;6.812;2023-02-19T00:18:56;9.50;99.90
52919;DHT22;38793;52.690;6.812;2023-02-19T00:21:23;9.50;99.90
52919;DHT22;38793;52.690;6.812;2023-02-19T00:23:54;9.50;99.90
52919;DHT22;38793;52.690;6.812;2023-02-19T00:26:20;9.50;99.90
52919;DHT22;38793;52.690;6.812;2023-02-19T00:28:47;9.50;99.90
52919;DHT22;38793;52.690;6.812;2023-02-19T00:31:24;9.50;99.90
52919;DHT22;38793;52.690;6.812;2023-02-19T00:33:53;9.50;99.90
52919;DHT22;38793;52.690;6.812;2023-02-19T00:36:19;9.50;99.90
52919;DHT22;38793;52.690;6.812;2023-02-19T00:38:45;9.50;99.90
52919;DHT22;38793;52.690;6.812;2023-02-19T00:41:11;9.50;99.90
52919;DHT22;38793;52.690;6.812;2023-02-19T00:43:53;9.50;99.90
52919;DHT22;38793;52.690;6.812;2023-02-19T00:46:24;9.50;99.90
52919;DHT22;38793;52.690;6.812;2023-02-19T00:48:51;9.50;99.90
52919;DHT22;38793;52.690;6.812;2023-02-19T00:51:21;9.50;99.90
52919;DHT22;38793;52.690;6.812;2023-02-19T00:53:48;9.50;99.90
52919;DHT22;38793;52.690;6.812;2023-02-19T00:56:14;9.50;99.90
52919;DHT22;38793;52.690;6.812;2023-02-19T00:58:40;9.50;99.90
52919;DHT22;38793;52.690;6.812;2023-02-19T01:01:06;9.50;99.90
52919;DHT22;38793;52.690;6.812;2023-02-19T01:03:33;9.50;99.90
52919;DHT22;38793;52.690;6.812;2023-02-19T01:05:59;9.50;99.90
52919;DHT22;38793;52.690;6.812;2023-02-19T01:08:25;9.50;99.90
52919;DHT22;38793;52.690;6.812;2023-02-19T01:10:50;9.50;99.90
52919;DHT22;38793;52.690;6.812;2023-02-19T01:13:16;9.60;99.90
52919;DHT22;38793;52.690;6.812;2023-02-19T01:15:42;9.50;99.90
52919;DHT22;38793;52.690;6.812;2023-02-19T01:18:08;9.50;99.90
52919;DHT22;38793;52.690;6.812;2023-02-19T01:20:34;9.50;99.90
52919;DHT22;38793;52.690;6.812;2023-02-19T01:22:59;9.50;99.90
52919;DHT22;38793;52.690;6.812;2023-02-19T01:25:25;9.50;99.90
52919;DHT22;38793;52.690;6.812;2023-02-19T01:27:50;9.50;99.90
52919;DHT22;38793;52.690;6.812;2023-02-19T01:30:16;9.50;99.90
52919;DHT22;38793;52.690;6.812;2023-02-19T01:32:41;9.50;99.90
52919;DHT22;38793;52.690;6.812;2023-02-19T01:35:07;9.40;99.90
52919;DHT22;38793;52.690;6.812;2023-02-19T01:37:33;9.40;99.90
52919;DHT22;38793;52.690;6.812;2023-02-19T01:39:58;9.40;99.90
52919;DHT22;38793;52.690;6.812;2023-02-19T01:42:24;9.40;99.90
52919;DHT22;38793;52.690;6.812;2023-02-19T01:45:29;9.40;99.90
52919;DHT22;38793;52.690;6.812;2023-02-19T01:48:16;9.40;99.90
52919;DHT22;38793;52.690;6.812;2023-02-19T01:50:52;9.40;99.90
52919;DHT22;38793;52.690;6.812;2023-02-19T01:53:21;9.40;99.90
52919;DHT22;38793;52.690;6.812;2023-02-19T01:55:51;9.30;99.90
52919;DHT22;38793;52.690;6.812;2023-02-19T01:58:19;9.30;99.90
52919;DHT22;38793;52.690;6.812;2023-02-19T02:00:45;9.30;99.90
52919;DHT22;38793;52.690;6.812;2023-02-19T02:03:11;9.30;99.90
52919;DHT22;38793;52.690;6.812;2023-02-19T02:05:58;9.30;99.90
52919;DHT22;38793;52.690;6.812;2023-02-19T02:08:26;9.30;99.90
52919;DHT22;38793;52.690;6.812;2023-02-19T02:11:11;9.30;99.90
52919;DHT22;38793;52.690;6.812;2023-02-19T02:13:38;9.30;99.90
52919;DHT22;38793;52.690;6.812;2023-02-19T02:19:42;9.20;99.90
52919;DHT22;38793;52.690;6.812;2023-02-19T02:24:51;9.20;99.90
52919;DHT22;38793;52.690;6.812;2023-02-19T02:36:06;9.20;99.90
52919;DHT22;38793;52.690;6.812;2023-02-19T02:38:35;9.20;99.90
52919;DHT22;38793;52.690;6.812;2023-02-19T02:41:03;9.20;99.90
52919;DHT22;38793;52.690;6.812;2023-02-19T02:43:29;9.20;99.90
52919;DHT22;38793;52.690;6.812;2023-02-19T02:45:55;9.20;99.90
52919;DHT22;38793;52.690;6.812;2023-02-19T02:48:34;9.20;99.90
52919;DHT22;38793;52.690;6.812;2023-02-19T02:51:15;9.20;99.90
52919;DHT22;38793;52.690;6.812;2023-02-19T02:53:54;9.20;99.90
52919;DHT22;38793;52.690;6.812;2023-02-19T02:56:40;9.20;99.90
52919;DHT22;38793;52.690;6.812;2023-02-19T02:59:09;9.20;99.90
52919;DHT22;38793;52.690;6.812;2023-02-19T03:01:51;9.20;99.90
52919;DHT22;38793;52.690;6.812;2023-02-19T03:07:43;9.20;99.90
52919;DHT22;38793;52.690;6.812;2023-02-19T03:10:12;9.10;99.90
52919;DHT22;38793;52.690;6.812;2023-02-19T03:12:39;9.10;99.90
52919;DHT22;38793;52.690;6.812;2023-02-19T03:15:34;9.10;99.90
52919;DHT22;38793;52.690;6.812;2023-02-19T03:18:20;9.10;99.90
52919;DHT22;38793;52.690;6.812;2023-02-19T03:21:06;9.10;99.90
52919;DHT22;38793;52.690;6.812;2023-02-19T03:23:34;9.10;99.90
52919;DHT22;38793;52.690;6.812;2023-02-19T03:26:20;9.10;99.90
52919;DHT22;38793;52.690;6.812;2023-02-19T03:28:47;9.10;99.90
52919;DHT22;38793;52.690;6.812;2023-02-19T03:31:34;9.00;99.90
52919;DHT22;38793;52.690;6.812;2023-02-19T03:34:05;9.00;99.90
52919;DHT22;38793;52.690;6.812;2023-02-19T03:36:37;9.00;99.90
52919;DHT22;38793;52.690;6.812;2023-02-19T03:39:08;9.00;99.90
52919;DHT22;38793;52.690;6.812;2023-02-19T03:41:35;9.00;99.90
52919;DHT22;38793;52.690;6.812;2023-02-19T03:47:02;9.00;99.90
52919;DHT22;38793;52.690;6.812;2023-02-19T03:57:17;9.00;99.90
52919;DHT22;38793;52.690;6.812;2023-02-19T03:59:51;9.00;99.90
52919;DHT22;38793;52.690;6.812;2023-02-19T04:02:28;8.90;99.90
52919;DHT22;38793;52.690;6.812;2023-02-19T04:04:59;8.90;99.90
52919;DHT22;38793;52.690;6.812;2023-02-19T04:07:29;8.90;99.90
52919;DHT22;38793;52.690;6.812;2023-02-19T04:09:57;8.90;99.90
52919;DHT22;38793;52.690;6.812;2023-02-19T04:12:23;8.90;99.90
52919;DHT22;38793;52.690;6.812;2023-02-19T04:15:02;8.90;99.90
52919;DHT22;38793;52.690;6.812;2023-02-19T04:17:34;8.90;99.90
52919;DHT22;38793;52.690;6.812;2023-02-19T04:20:06;8.90;99.90
52919;DHT22;38793;52.690;6.812;2023-02-19T04:22:33;8.90;99.90
52919;DHT22;38793;52.690;6.812;2023-02-19T04:24:59;8.90;99.90
52919;DHT22;38793;52.690;6.812;2023-02-19T04:27:25;8.90;99.90
52919;DHT22;38793;52.690;6.812;2023-02-19T04:29:51;8.90;99.90
52919;DHT22;38793;52.690;6.812;2023-02-19T04:32:16;8.90;99.90
52919;DHT22;38793;52.690;6.812;2023-02-19T04:34:42;8.90;99.90
52919;DHT22;38793;52.690;6.812;2023-02-19T04:37:08;8.90;99.90
52919;DHT22;38793;52.690;6.812;2023-02-19T04:39:33;8.90;99.90
52919;DHT22;38793;52.690;6.812;2023-02-19T04:41:59;8.90;99.90
52919;DHT22;38793;52.690;6.812;2023-02-19T04:44:25;8.90;99.90
52919;DHT22;38793;52.690;6.812;2023-02-19T04:46:50;8.90;99.90
52919;DHT22;38793;52.690;6.812;2023-02-19T04:49:16;8.90;99.90
52919;DHT22;38793;52.690;6.812;2023-02-19T04:51:41;8.90;99.90
52919;DHT22;38793;52.690;6.812;2023-02-19T04:54:07;8.90;99.90
52919;DHT22;38793;52.690;6.812;2023-02-19T04:56:33;8.90;99.90
52919;DHT22;38793;52.690;6.812;2023-02-19T04:58:58;8.90;99.90
52919;DHT22;38793;52.690;6.812;2023-02-19T05:01:24;8.80;99.90
52919;DHT22;38793;52.690;6.812;2023-02-19T05:03:50;8.80;99.90
52919;DHT22;38793;52.690;6.812;2023-02-19T05:06:16;8.80;99.90
52919;DHT22;38793;52.690;6.812;2023-02-19T05:08:42;8.70;99.90
52919;DHT22;38793;52.690;6.812;2023-02-19T05:11:09;8.60;99.90
52919;DHT22;38793;52.690;6.812;2023-02-19T05:13:35;8.50;99.90
52919;DHT22;38793;52.690;6.812;2023-02-19T05:16:04;8.40;99.90
52919;DHT22;38793;52.690;6.812;2023-02-19T05:18:30;8.40;99.90
52919;DHT22;38793;52.690;6.812;2023-02-19T05:20:57;8.30;99.90
52919;DHT22;38793;52.690;6.812;2023-02-19T05:23:24;8.20;99.90
52919;DHT22;38793;52.690;6.812;2023-02-19T05:25:50;8.20;99.90
52919;DHT22;38793;52.690;6.812;2023-02-19T05:28:16;8.10;99.90
52919;DHT22;38793;52.690;6.812;2023-02-19T05:30:49;8.10;99.90
52919;DHT22;38793;52.690;6.812;2023-02-19T05:33:16;8.00;99.90
52919;DHT22;38793;52.690;6.812;2023-02-19T05:35:51;8.00;99.90
52919;DHT22;38793;52.690;6.812;2023-02-19T05:38:18;7.90;99.90
52919;DHT22;38793;52.690;6.812;2023-02-19T05:40:44;7.90;99.90
52919;DHT22;38793;52.690;6.812;2023-02-19T05:43:10;7.90;99.90
52919;DHT22;38793;52.690;6.812;2023-02-19T05:45:36;7.80;99.90
52919;DHT22;38793;52.690;6.812;2023-02-19T05:48:03;7.80;99.90
52919;DHT22;38793;52.690;6.812;2023-02-19T05:50:29;7.70;99.90
52919;DHT22;38793;52.690;6.812;2023-02-19T05:52:55;7.70;99.90
52919;DHT22;38793;52.690;6.812;2023-02-19T05:55:20;7.70;99.90
52919;DHT22;38793;52.690;6.812;2023-02-19T05:57:47;7.60;99.90
52919;DHT22;38793;52.690;6.812;2023-02-19T06:00:16;7.60;99.90
52919;DHT22;38793;52.690;6.812;2023-02-19T06:02:43;7.50;99.90
52919;DHT22;38793;52.690;6.812;2023-02-19T06:05:09;7.50;99.90
52919;DHT22;38793;52.690;6.812;2023-02-19T06:07:35;7.40;99.90
52919;DHT22;38793;52.690;6.812;2023-02-19T06:10:01;7.40;99.90
52919;DHT22;38793;52.690;6.812;2023-02-19T06:12:27;7.40;99.90
52919;DHT22;38793;52.690;6.812;2023-02-19T06:14:52;7.40;99.90
52919;DHT22;38793;52.690;6.812;2023-02-19T06:17:18;7.30;99.90
52919;DHT22;38793;52.690;6.812;2023-02-19T06:19:43;7.30;99.90
52919;DHT22;38793;52.690;6.812;2023-02-19T06:22:09;7.30;99.90
52919;DHT22;38793;52.690;6.812;2023-02-19T06:24:35;7.30;99.90
52919;DHT22;38793;52.690;6.812;2023-02-19T06:27:13;7.30;99.90
52919;DHT22;38793;52.690;6.812;2023-02-19T06:29:39;7.20;99.90
52919;DHT22;38793;52.690;6.812;2023-02-19T06:32:05;7.20;99.90
52919;DHT22;38793;52.690;6.812;2023-02-19T06:34:32;7.20;99.90
52919;DHT22;38793;52.690;6.812;2023-02-19T06:36:58;7.20;99.90
52919;DHT22;38793;52.690;6.812;2023-02-19T06:39:24;7.10;99.90
52919;DHT22;38793;52.690;6.812;2023-02-19T06:41:50;7.10;99.90
52919;DHT22;38793;52.690;6.812;2023-02-19T06:44:16;7.10;99.90
52919;DHT22;38793;52.690;6.812;2023-02-19T06:46:41;7.10;99.90
52919;DHT22;38793;52.690;6.812;2023-02-19T06:49:07;7.10;99.90
52919;DHT22;38793;52.690;6.812;2023-02-19T06:51:33;7.10;99.90
52919;DHT22;38793;52.690;6.812;2023-02-19T06:53:59;7.00;99.90
52919;DHT22;38793;52.690;6.812;2023-02-19T06:56:28;7.00;99.90
52919;DHT22;38793;52.690;6.812;2023-02-19T06:58:57;7.00;99.90
52919;DHT22;38793;52.690;6.812;2023-02-19T07:01:24;6.90;99.90
52919;DHT22;38793;52.690;6.812;2023-02-19T07:03:50;6.90;99.90
52919;DHT22;38793;52.690;6.812;2023-02-19T07:06:17;6.90;99.90
52919;DHT22;38793;52.690;6.812;2023-02-19T07:08:43;6.80;99.90
52919;DHT22;38793;52.690;6.812;2023-02-19T07:11:09;6.80;99.90
52919;DHT22;38793;52.690;6.812;2023-02-19T07:13:35;6.80;99.90
52919;DHT22;38793;52.690;6.812;2023-02-19T07:16:03;6.70;99.90
52919;DHT22;38793;52.690;6.812;2023-02-19T07:18:30;6.80;99.90
52919;DHT22;38793;52.690;6.812;2023-02-19T07:21:02;6.70;99.90
52919;DHT22;38793;52.690;6.812;2023-02-19T07:23:28;6.70;99.90
52919;DHT22;38793;52.690;6.812;2023-02-19T07:25:53;6.70;99.90
52919;DHT22;38793;52.690;6.812;2023-02-19T07:28:19;6.60;99.90
52919;DHT22;38793;52.690;6.812;2023-02-19T07:30:44;6.60;99.90
52919;DHT22;38793;52.690;6.812;2023-02-19T07:33:10;6.60;99.90
52919;DHT22;38793;52.690;6.812;2023-02-19T07:35:35;6.60;99.90
52919;DHT22;38793;52.690;6.812;2023-02-19T07:38:01;6.60;99.90
52919;DHT22;38793;52.690;6.812;2023-02-19T07:40:26;6.60;99.90
52919;DHT22;38793;52.690;6.812;2023-02-19T07:42:52;6.70;99.90
52919;DHT22;38793;52.690;6.812;2023-02-19T07:45:18;6.60;99.90
52919;DHT22;38793;52.690;6.812;2023-02-19T07:47:43;6.60;99.90
52919;DHT22;38793;52.690;6.812;2023-02-19T07:50:09;6.60;99.90
52919;DHT22;38793;52.690;6.812;2023-02-19T07:52:34;6.60;99.90
52919;DHT22;38793;52.690;6.812;2023-02-19T07:55:00;6.60;99.90
52919;DHT22;38793;52.690;6.812;2023-02-19T07:57:28;6.70;99.90
52919;DHT22;38793;52.690;6.812;2023-02-19T07:59:55;6.70;99.90
52919;DHT22;38793;52.690;6.812;2023-02-19T08:02:21;6.70;99.90
52919;DHT22;38793;52.690;6.812;2023-02-19T08:05:05;6.70;99.90
52919;DHT22;38793;52.690;6.812;2023-02-19T08:07:35;6.70;99.90
52919;DHT22;38793;52.690;6.812;2023-02-19T08:10:02;6.70;99.90
52919;DHT22;38793;52.690;6.812;2023-02-19T08:12:56;6.70;99.90
52919;DHT22;38793;52.690;6.812;2023-02-19T08:15:41;6.70;99.90
52919;DHT22;38793;52.690;6.812;2023-02-19T08:18:07;6.70;99.90
52919;DHT22;38793;52.690;6.812;2023-02-19T08:20:32;6.70;99.90
52919;DHT22;38793;52.690;6.812;2023-02-19T08:22:58;6.70;99.90
52919;DHT22;38793;52.690;6.812;2023-02-19T08:25:24;6.70;99.90
52919;DHT22;38793;52.690;6.812;2023-02-19T08:27:50;6.70;99.90
52919;DHT22;38793;52.690;6.812;2023-02-19T08:30:16;6.70;99.90
52919;DHT22;38793;52.690;6.812;2023-02-19T08:32:41;6.70;99.90
52919;DHT22;38793;52.690;6.812;2023-02-19T08:35:07;6.70;99.90
52919;DHT22;38793;52.690;6.812;2023-02-19T08:37:32;6.70;99.90
52919;DHT22;38793;52.690;6.812;2023-02-19T08:39:58;6.70;99.90
52919;DHT22;38793;52.690;6.812;2023-02-19T08:42:29;6.70;99.90
52919;DHT22;38793;52.690;6.812;2023-02-19T08:44:55;6.70;99.90
52919;DHT22;38793;52.690;6.812;2023-02-19T08:47:21;6.80;99.90
52919;DHT22;38793;52.690;6.812;2023-02-19T08:49:46;6.70;99.90
52919;DHT22;38793;52.690;6.812;2023-02-19T08:52:12;6.80;99.90
52919;DHT22;38793;52.690;6.812;2023-02-19T08:54:37;6.80;99.90
52919;DHT22;38793;52.690;6.812;2023-02-19T08:57:03;6.90;99.90
52919;DHT22;38793;52.690;6.812;2023-02-19T08:59:30;7.10;99.90
52919;DHT22;38793;52.690;6.812;2023-02-19T09:01:57;7.30;99.90
52919;DHT22;38793;52.690;6.812;2023-02-19T09:04:23;7.40;99.90
52919;DHT22;38793;52.690;6.812;2023-02-19T09:06:49;7.50;99.90
52919;DHT22;38793;52.690;6.812;2023-02-19T09:09:14;7.50;99.90
52919;DHT22;38793;52.690;6.812;2023-02-19T09:11:40;7.50;99.90
52919;DHT22;38793;52.690;6.812;2023-02-19T09:14:06;7.50;99.90
52919;DHT22;38793;52.690;6.812;2023-02-19T09:16:35;7.50;99.90
52919;DHT22;38793;52.690;6.812;2023-02-19T09:19:02;7.50;99.90
52919;DHT22;38793;52.690;6.812;2023-02-19T09:21:27;7.50;99.90
52919;DHT22;38793;52.690;6.812;2023-02-19T09:23:53;7.60;99.90
52919;DHT22;38793;52.690;6.812;2023-02-19T09:26:19;7.70;99.90
52919;DHT22;38793;52.690;6.812;2023-02-19T09:28:44;7.90;99.90
52919;DHT22;38793;52.690;6.812;2023-02-19T09:31:12;8.00;99.90
52919;DHT22;38793;52.690;6.812;2023-02-19T09:33:42;8.10;99.90
52919;DHT22;38793;52.690;6.812;2023-02-19T09:36:08;8.20;99.90
52919;DHT22;38793;52.690;6.812;2023-02-19T09:38:34;8.30;99.90
52919;DHT22;38793;52.690;6.812;2023-02-19T09:41:05;8.40;99.90
52919;DHT22;38793;52.690;6.812;2023-02-19T09:43:32;8.40;99.90
52919;DHT22;38793;52.690;6.812;2023-02-19T09:46:21;8.50;99.90
52919;DHT22;38793;52.690;6.812;2023-02-19T09:48:48;8.40;99.90
52919;DHT22;38793;52.690;6.812;2023-02-19T09:51:15;8.30;99.90
52919;DHT22;38793;52.690;6.812;2023-02-19T09:53:44;8.40;99.90
52919;DHT22;38793;52.690;6.812;2023-02-19T09:56:11;8.40;99.90
52919;DHT22;38793;52.690;6.812;2023-02-19T09:58:45;8.40;99.90
52919;DHT22;38793;52.690;6.812;2023-02-19T10:01:12;8.40;99.90
52919;DHT22;38793;52.690;6.812;2023-02-19T10:03:39;8.50;99.90
52919;DHT22;38793;52.690;6.812;2023-02-19T10:06:14;8.60;99.90
52919;DHT22;38793;52.690;6.812;2023-02-19T10:08:42;8.60;99.90
52919;DHT22;38793;52.690;6.812;2023-02-19T10:11:11;8.60;99.90
52919;DHT22;38793;52.690;6.812;2023-02-19T10:13:43;8.70;99.90
52919;DHT22;38793;52.690;6.812;2023-02-19T10:16:23;8.90;99.90
52919;DHT22;38793;52.690;6.812;2023-02-19T10:18:49;9.10;99.90
52919;DHT22;38793;52.690;6.812;2023-02-19T10:21:20;9.20;99.90
52919;DHT22;38793;52.690;6.812;2023-02-19T10:23:49;9.40;99.90
52919;DHT22;38793;52.690;6.812;2023-02-19T10:26:16;9.60;99.90
52919;DHT22;38793;52.690;6.812;2023-02-19T10:28:42;9.50;99.90
52919;DHT22;38793;52.690;6.812;2023-02-19T10:31:16;9.60;99.90
52919;DHT22;38793;52.690;6.812;2023-02-19T10:36:25;9.80;99.90
52919;DHT22;38793;52.690;6.812;2023-02-19T10:38:51;9.80;99.90
52919;DHT22;38793;52.690;6.812;2023-02-19T10:41:19;9.80;99.90
52919;DHT22;38793;52.690;6.812;2023-02-19T10:46:33;9.80;99.90
52919;DHT22;38793;52.690;6.812;2023-02-19T10:51:49;10.00;99.90
52919;DHT22;38793;52.690;6.812;2023-02-19T10:54:18;10.10;99.90
52919;DHT22;38793;52.690;6.812;2023-02-19T10:56:44;10.20;99.90
52919;DHT22;38793;52.690;6.812;2023-02-19T11:02:03;10.20;99.90
52919;DHT22;38793;52.690;6.812;2023-02-19T11:04:38;10.10;99.90
52919;DHT22;38793;52.690;6.812;2023-02-19T11:07:14;10.10;99.90
52919;DHT22;38793;52.690;6.812;2023-02-19T11:09:43;10.10;99.90
52919;DHT22;38793;52.690;6.812;2023-02-19T11:12:20;10.00;99.90
52919;DHT22;38793;52.690;6.812;2023-02-19T11:14:47;10.00;99.90
52919;DHT22;38793;52.690;6.812;2023-02-19T11:17:39;9.90;99.90
52919;DHT22;38793;52.690;6.812;2023-02-19T11:20:14;9.90;99.90
52919;DHT22;38793;52.690;6.812;2023-02-19T11:22:43;10.00;99.90
52919;DHT22;38793;52.690;6.812;2023-02-19T11:28:00;10.20;99.90
52919;DHT22;38793;52.690;6.812;2023-02-19T11:32:55;10.20;99.90
52919;DHT22;38793;52.690;6.812;2023-02-19T11:35:22;10.20;99.90
52919;DHT22;38793;52.690;6.812;2023-02-19T11:37:57;10.10;99.90
52919;DHT22;38793;52.690;6.812;2023-02-19T11:40:47;10.00;99.90
52919;DHT22;38793;52.690;6.812;2023-02-19T11:51:57;10.00;99.90
52919;DHT22;38793;52.690;6.812;2023-02-19T11:57:25;9.90;99.90
52919;DHT22;38793;52.690;6.812;2023-02-19T12:02:50;9.80;99.90
52919;DHT22;38793;52.690;6.812;2023-02-19T12:10:48;9.80;99.90
52919;DHT22;38793;52.690;6.812;2023-02-19T12:21:55;10.10;99.90
52919;DHT22;38793;52.690;6.812;2023-02-19T12:27:09;10.30;99.90
52919;DHT22;38793;52.690;6.812;2023-02-19T12:35:36;10.70;99.90
52919;DHT22;38793;52.690;6.812;2023-02-19T12:38:26;10.60;99.90
52919;DHT22;38793;52.690;6.812;2023-02-19T12:43:50;10.40;99.90
52919;DHT22;38793;52.690;6.812;2023-02-19T12:46:28;10.40;99.90
52919;DHT22;38793;52.690;6.812;2023-02-19T12:49:02;10.20;99.90
52919;DHT22;38793;52.690;6.812;2023-02-19T12:51:43;10.20;99.90
52919;DHT22;38793;52.690;6.812;2023-02-19T13:02:29;9.60;99.90
52919;DHT22;38793;52.690;6.812;2023-02-19T13:05:12;9.60;99.90
52919;DHT22;38793;52.690;6.812;2023-02-19T13:07:58;9.60;99.90
52919;DHT22;38793;52.690;6.812;2023-02-19T13:10:29;9.60;99.90
52919;DHT22;38793;52.690;6.812;2023-02-19T13:13:00;9.50;99.90
52919;DHT22;38793;52.690;6.812;2023-02-19T13:15:40;9.50;99.90
52919;DHT22;38793;52.690;6.812;2023-02-19T13:18:30;9.50;99.90
52919;DHT22;38793;52.690;6.812;2023-02-19T13:20:58;9.40;99.90
52919;DHT22;38793;52.690;6.812;2023-02-19T13:23:31;9.40;99.90
52919;DHT22;38793;52.690;6.812;2023-02-19T13:29:14;9.40;99.90
52919;DHT22;38793;52.690;6.812;2023-02-19T13:37:32;9.40;99.90
52919;DHT22;38793;52.690;6.812;2023-02-19T13:40:05;9.30;99.90
52919;DHT22;38793;52.690;6.812;2023-02-19T13:42:41;9.30;99.90
52919;DHT22;38793;52.690;6.812;2023-02-19T13:45:18;9.30;99.90
52919;DHT22;38793;52.690;6.812;2023-02-19T13:47:57;9.30;99.90
52919;DHT22;38793;52.690;6.812;2023-02-19T13:50:26;9.20;99.90
52919;DHT22;38793;52.690;6.812;2023-02-19T13:52:54;9.20;99.90
52919;DHT22;38793;52.690;6.812;2023-02-19T14:01:08;9.20;99.90
52919;DHT22;38793;52.690;6.812;2023-02-19T14:06:06;9.10;99.90
52919;DHT22;38793;52.690;6.812;2023-02-19T14:11:13;9.10;99.90
52919;DHT22;38793;52.690;6.812;2023-02-19T14:13:59;9.10;99.90
52919;DHT22;38793;52.690;6.812;2023-02-19T14:16:47;9.10;99.90
52919;DHT22;38793;52.690;6.812;2023-02-19T14:19:20;9.10;99.90
52919;DHT22;38793;52.690;6.812;2023-02-19T14:22:00;9.00;99.90
52919;DHT22;38793;52.690;6.812;2023-02-19T14:24:26;9.00;99.90
52919;DHT22;38793;52.690;6.812;2023-02-19T14:26:52;8.90;99.90
52919;DHT22;38793;52.690;6.812;2023-02-19T14:29:20;8.80;99.90
52919;DHT22;38793;52.690;6.812;2023-02-19T14:31:46;8.80;99.90
52919;DHT22;38793;52.690;6.812;2023-02-19T14:34:17;8.80;99.90
52919;DHT22;38793;52.690;6.812;2023-02-19T14:36:56;8.80;99.90
52919;DHT22;38793;52.690;6.812;2023-02-19T14:39:28;8.80;99.90
52919;DHT22;38793;52.690;6.812;2023-02-19T14:42:23;8.80;99.90
52919;DHT22;38793;52.690;6.812;2023-02-19T14:44:59;8.80;99.90
52919;DHT22;38793;52.690;6.812;2023-02-19T14:47:27;8.80;99.90
52919;DHT22;38793;52.690;6.812;2023-02-19T14:50:04;8.80;99.90
52919;DHT22;38793;52.690;6.812;2023-02-19T14:52:38;8.80;99.90
52919;DHT22;38793;52.690;6.812;2023-02-19T14:55:18;8.70;99.90
52919;DHT22;38793;52.690;6.812;2023-02-19T14:57:46;8.70;99.90
52919;DHT22;38793;52.690;6.812;2023-02-19T15:00:40;8.70;99.90
52919;DHT22;38793;52.690;6.812;2023-02-19T15:03:30;8.60;99.90
52919;DHT22;38793;52.690;6.812;2023-02-19T15:08:31;8.60;99.90
52919;DHT22;38793;52.690;6.812;2023-02-19T15:11:00;8.60;99.90
52919;DHT22;38793;52.690;6.812;2023-02-19T15:13:28;8.60;99.90
52919;DHT22;38793;52.690;6.812;2023-02-19T15:15:55;8.60;99.90
52919;DHT22;38793;52.690;6.812;2023-02-19T15:18:24;8.60;99.90
52919;DHT22;38793;52.690;6.812;2023-02-19T15:20:51;8.60;99.90
52919;DHT22;38793;52.690;6.812;2023-02-19T15:23:23;8.60;99.90
52919;DHT22;38793;52.690;6.812;2023-02-19T15:25:50;8.60;99.90
52919;DHT22;38793;52.690;6.812;2023-02-19T15:31:04;8.50;99.90
52919;DHT22;38793;52.690;6.812;2023-02-19T15:33:32;8.50;99.90
52919;DHT22;38793;52.690;6.812;2023-02-19T15:36:05;8.50;99.90
52919;DHT22;38793;52.690;6.812;2023-02-19T15:38:31;8.40;99.90
52919;DHT22;38793;52.690;6.812;2023-02-19T15:41:00;8.40;99.90
52919;DHT22;38793;52.690;6.812;2023-02-19T15:43:48;8.30;99.90
52919;DHT22;38793;52.690;6.812;2023-02-19T15:46:23;8.30;99.90
52919;DHT22;38793;52.690;6.812;2023-02-19T15:49:04;8.30;99.90
52919;DHT22;38793;52.690;6.812;2023-02-19T15:51:39;8.30;99.90
52919;DHT22;38793;52.690;6.812;2023-02-19T15:54:15;8.30;99.90
52919;DHT22;38793;52.690;6.812;2023-02-19T15:56:46;8.30;99.90
52919;DHT22;38793;52.690;6.812;2023-02-19T16:01:48;8.30;99.90
52919;DHT22;38793;52.690;6.812;2023-02-19T16:04:16;8.30;99.90
52919;DHT22;38793;52.690;6.812;2023-02-19T16:06:57;8.30;99.90
52919;DHT22;38793;52.690;6.812;2023-02-19T16:09:35;8.20;99.90
52919;DHT22;38793;52.690;6.812;2023-02-19T16:12:15;8.20;99.90
52919;DHT22;38793;52.690;6.812;2023-02-19T16:14:42;8.20;99.90
52919;DHT22;38793;52.690;6.812;2023-02-19T16:17:19;8.20;99.90
52919;DHT22;38793;52.690;6.812;2023-02-19T16:19:58;8.20;99.90
52919;DHT22;38793;52.690;6.812;2023-02-19T16:22:27;8.10;99.90
52919;DHT22;38793;52.690;6.812;2023-02-19T16:25:02;8.00;99.90
52919;DHT22;38793;52.690;6.812;2023-02-19T16:27:41;8.00;99.90
52919;DHT22;38793;52.690;6.812;2023-02-19T16:30:23;7.90;99.90
52919;DHT22;38793;52.690;6.812;2023-02-19T16:35:53;7.70;99.90
52919;DHT22;38793;52.690;6.812;2023-02-19T16:38:19;7.70;99.90
52919;DHT22;38793;52.690;6.812;2023-02-19T16:41:05;7.60;99.90
52919;DHT22;38793;52.690;6.812;2023-02-19T16:43:42;7.60;99.90
52919;DHT22;38793;52.690;6.812;2023-02-19T16:46:09;7.50;99.90
52919;DHT22;38793;52.690;6.812;2023-02-19T16:48:36;7.40;99.90
52919;DHT22;38793;52.690;6.812;2023-02-19T16:51:04;7.40;99.90
52919;DHT22;38793;52.690;6.812;2023-02-19T16:53:30;7.30;99.90
52919;DHT22;38793;52.690;6.812;2023-02-19T16:55:57;7.30;99.90
52919;DHT22;38793;52.690;6.812;2023-02-19T16:58:24;7.30;99.90
52919;DHT22;38793;52.690;6.812;2023-02-19T17:00:49;7.20;99.90
52919;DHT22;38793;52.690;6.812;2023-02-19T17:03:19;7.20;99.90
52919;DHT22;38793;52.690;6.812;2023-02-19T17:05:45;7.20;99.90
52919;DHT22;38793;52.690;6.812;2023-02-19T17:08:35;7.10;99.90
52919;DHT22;38793;52.690;6.812;2023-02-19T17:11:08;7.10;99.90
52919;DHT22;38793;52.690;6.812;2023-02-19T17:13:34;7.10;99.90
52919;DHT22;38793;52.690;6.812;2023-02-19T17:16:00;7.10;99.90
52919;DHT22;38793;52.690;6.812;2023-02-19T17:18:25;7.20;99.90
52919;DHT22;38793;52.690;6.812;2023-02-19T17:21:12;7.20;99.90
52919;DHT22;38793;52.690;6.812;2023-02-19T17:23:38;7.20;99.90
52919;DHT22;38793;52.690;6.812;2023-02-19T17:26:03;7.20;99.90
52919;DHT22;38793;52.690;6.812;2023-02-19T17:28:29;7.20;99.90
52919;DHT22;38793;52.690;6.812;2023-02-19T17:30:55;7.20;99.90
52919;DHT22;38793;52.690;6.812;2023-02-19T17:33:21;7.20;99.90
52919;DHT22;38793;52.690;6.812;2023-02-19T17:35:46;7.20;99.90
52919;DHT22;38793;52.690;6.812;2023-02-19T17:38:12;7.20;99.90
52919;DHT22;38793;52.690;6.812;2023-02-19T17:40:38;7.10;99.90
52919;DHT22;38793;52.690;6.812;2023-02-19T17:43:05;7.20;99.90
52919;DHT22;38793;52.690;6.812;2023-02-19T17:45:30;7.20;99.90
52919;DHT22;38793;52.690;6.812;2023-02-19T17:47:56;7.10;99.90
52919;DHT22;38793;52.690;6.812;2023-02-19T17:50:26;7.10;99.90
52919;DHT22;38793;52.690;6.812;2023-02-19T17:52:51;7.10;99.90
52919;DHT22;38793;52.690;6.812;2023-02-19T17:55:17;7.00;99.90
52919;DHT22;38793;52.690;6.812;2023-02-19T17:57:47;7.00;99.90
52919;DHT22;38793;52.690;6.812;2023-02-19T18:00:15;6.90;99.90
52919;DHT22;38793;52.690;6.812;2023-02-19T18:02:41;6.90;99.90
52919;DHT22;38793;52.690;6.812;2023-02-19T18:05:06;6.90;99.90
52919;DHT22;38793;52.690;6.812;2023-02-19T18:07:32;6.90;99.90
52919;DHT22;38793;52.690;6.812;2023-02-19T18:09:58;6.90;99.90